createdAt,value
2019-02-28T00:00:54.928Z,12.23
2019-02-28T00:03:26.206Z,11.60
2019-02-28T00:05:54.571Z,12.53
2019-02-28T00:08:23.442Z,11.90
2019-02-28T00:10:52.399Z,12.53
2019-02-28T00:13:22.443Z,12.97
2019-02-28T00:15:51.527Z,12.57
2019-02-28T00:18:20.554Z,13.63
2019-02-28T00:20:49.536Z,13.87
2019-02-28T00:23:19.242Z,13.27
2019-02-28T00:25:48.944Z,14.23
2019-02-28T00:28:17.780Z,13.90
2019-02-28T00:30:46.731Z,14.47
2019-02-28T00:33:15.658Z,14.43
2019-02-28T00:35:45.469Z,14.60
2019-02-28T00:38:14.323Z,14.90
2019-02-28T00:40:43.256Z,15.77
2019-02-28T00:43:12.171Z,15.60
2019-02-28T00:45:41.220Z,16.40
2019-02-28T00:48:10.055Z,15.87
2019-02-28T00:50:38.999Z,16.37
2019-02-28T00:53:07.889Z,17.40
2019-02-28T00:55:37.055Z,17.50
2019-02-28T00:58:06.003Z,17.47
2019-02-28T01:00:37.071Z,17.90
2019-02-28T01:03:05.864Z,19.13
2019-02-28T01:05:36.592Z,19.40
2019-02-28T01:08:05.461Z,22.60
2019-02-28T01:10:38.845Z,22.67
2019-02-28T01:13:05.136Z,24.03
2019-02-28T01:15:34.190Z,24.00
2019-02-28T01:18:03.251Z,26.10
2019-02-28T01:20:32.123Z,24.90
2019-02-28T01:23:01.109Z,25.83
2019-02-28T01:25:30.039Z,26.03
2019-02-28T01:27:58.968Z,26.67
2019-02-28T01:30:27.952Z,26.17
2019-02-28T01:32:56.839Z,26.80
2019-02-28T01:35:25.711Z,27.60
2019-02-28T01:37:54.670Z,28.03
2019-02-28T01:40:23.543Z,27.43
2019-02-28T01:42:54.933Z,28.70
2019-02-28T01:45:23.048Z,27.97
2019-02-28T01:47:52.426Z,28.97
2019-02-28T01:50:21.549Z,28.97
2019-02-28T01:52:50.532Z,28.20
2019-02-28T01:55:19.493Z,29.37
2019-02-28T01:57:48.427Z,28.20
2019-02-28T02:00:17.670Z,29.07
2019-02-28T02:02:46.584Z,28.33
2019-02-28T02:05:16.882Z,29.37
2019-02-28T02:07:46.250Z,29.10
2019-02-28T02:10:21.286Z,28.73
2019-02-28T02:12:49.918Z,30.60
2019-02-28T02:15:18.923Z,29.93
2019-02-28T02:17:47.835Z,30.47
2019-02-28T02:20:16.879Z,30.30
2019-02-28T02:22:45.816Z,30.73
2019-02-28T02:25:14.976Z,30.80
2019-02-28T02:27:43.907Z,31.20
2019-02-28T02:30:16.318Z,32.37
2019-02-28T02:32:45.258Z,32.30
2019-02-28T02:35:14.352Z,31.57
2019-02-28T02:37:43.279Z,32.60
2019-02-28T02:40:12.718Z,31.80
2019-02-28T02:42:47.147Z,32.47
2019-02-28T02:45:12.751Z,31.83
2019-02-28T02:47:41.599Z,33.70
2019-02-28T02:50:12.411Z,33.33
2019-02-28T02:52:41.347Z,33.60
2019-02-28T02:55:10.427Z,33.93
2019-02-28T02:57:39.487Z,32.73
2019-02-28T03:00:13.799Z,34.57
2019-02-28T03:02:42.298Z,32.40
2019-02-28T03:05:11.360Z,33.03
2019-02-28T03:07:40.381Z,34.20
2019-02-28T03:10:10.514Z,35.77
2019-02-28T03:12:39.484Z,34.50
2019-02-28T03:15:09.759Z,34.37
2019-02-28T03:17:38.779Z,33.03
2019-02-28T03:20:08.898Z,35.70
2019-02-28T03:22:37.856Z,33.60
2019-02-28T03:25:07.259Z,33.73
2019-02-28T03:27:36.084Z,33.13
2019-02-28T03:30:05.851Z,32.97
2019-02-28T03:32:42.173Z,32.80
2019-02-28T03:35:05.784Z,32.60
2019-02-28T03:37:34.788Z,32.93
2019-02-28T03:40:05.165Z,32.47
2019-02-28T03:42:34.267Z,31.47
2019-02-28T03:45:03.167Z,31.87
2019-02-28T03:47:32.139Z,32.50
2019-02-28T03:50:00.960Z,30.47
2019-02-28T03:52:29.788Z,29.17
2019-02-28T03:55:03.408Z,30.00
2019-02-28T03:57:29.666Z,31.23
2019-02-28T03:59:58.639Z,31.83
2019-02-28T04:02:27.635Z,32.63
2019-02-28T04:04:56.526Z,33.00
2019-02-28T04:07:25.567Z,32.20
2019-02-28T04:09:54.434Z,32.10
2019-02-28T04:12:23.433Z,32.53
2019-02-28T04:14:52.335Z,32.63
2019-02-28T04:17:21.345Z,32.87
2019-02-28T04:19:50.247Z,35.10
2019-02-28T04:22:19.417Z,34.30
2019-02-28T04:24:49.708Z,34.57
2019-02-28T04:27:18.565Z,33.90
2019-02-28T04:29:47.378Z,33.93
2019-02-28T04:32:16.222Z,33.80
2019-02-28T04:34:45.855Z,35.07
2019-02-28T04:37:15.646Z,34.70
2019-02-28T04:39:44.544Z,35.30
2019-02-28T04:42:13.772Z,34.87
2019-02-28T04:44:42.623Z,38.20
2019-02-28T04:47:11.443Z,36.33
2019-02-28T04:49:40.367Z,36.73
2019-02-28T04:52:11.812Z,36.90
2019-02-28T04:54:39.963Z,38.70
2019-02-28T04:57:08.794Z,37.23
2019-02-28T04:59:37.707Z,36.50
2019-02-28T05:02:06.512Z,38.90
2019-02-28T05:04:36.158Z,39.03
2019-02-28T05:07:05.694Z,38.27
2019-02-28T05:09:34.528Z,39.30
2019-02-28T05:12:05.227Z,40.07
2019-02-28T05:14:33.978Z,40.17
2019-02-28T05:17:02.842Z,42.23
2019-02-28T05:19:32.307Z,40.23
2019-02-28T05:22:02.215Z,40.80
2019-02-28T05:24:31.119Z,41.03
2019-02-28T05:27:01.216Z,43.30
2019-02-28T05:29:30.266Z,41.10
2019-02-28T05:32:00.947Z,41.80
2019-02-28T05:34:29.688Z,40.40
2019-02-28T05:36:58.656Z,39.97
2019-02-28T05:39:28.234Z,40.97
2019-02-28T05:41:58.085Z,39.77
2019-02-28T05:44:27.131Z,38.50
2019-02-28T05:46:58.178Z,40.63
2019-02-28T05:49:26.602Z,42.30
2019-02-28T05:51:58.707Z,41.33
2019-02-28T05:54:26.001Z,43.00
2019-02-28T05:56:54.831Z,41.33
2019-02-28T05:59:27.418Z,42.20
2019-02-28T06:01:54.294Z,44.20
2019-02-28T06:04:23.223Z,43.77
2019-02-28T06:06:54.637Z,42.97
2019-02-28T06:09:22.702Z,41.63
2019-02-28T06:11:52.699Z,42.27
2019-02-28T06:14:26.488Z,42.00
2019-02-28T06:16:52.059Z,41.97
2019-02-28T06:19:20.866Z,41.27
2019-02-28T06:21:49.695Z,43.33
2019-02-28T06:24:18.604Z,43.30
2019-02-28T06:26:47.508Z,44.73
2019-02-28T06:29:16.304Z,42.50
2019-02-28T06:31:45.540Z,43.97
2019-02-28T06:34:15.737Z,44.53
2019-02-28T06:36:44.643Z,46.23
2019-02-28T06:39:13.561Z,45.23
2019-02-28T06:41:42.466Z,44.23
2019-02-28T06:44:11.303Z,43.60
2019-02-28T06:46:40.871Z,45.30
2019-02-28T06:49:09.812Z,42.50
2019-02-28T06:51:38.672Z,43.87
2019-02-28T06:54:07.800Z,44.73
2019-02-28T06:56:37.637Z,43.80
2019-02-28T06:59:06.527Z,43.10
2019-02-28T07:01:35.415Z,44.47
2019-02-28T07:04:04.307Z,45.67
2019-02-28T07:06:35.688Z,45.10
2019-02-28T07:09:04.857Z,44.93
2019-02-28T07:11:33.723Z,45.57
2019-02-28T07:14:02.555Z,44.30
2019-02-28T07:16:34.419Z,42.67
2019-02-28T07:19:01.951Z,44.10
2019-02-28T07:21:30.848Z,43.07
2019-02-28T07:24:02.436Z,42.97
2019-02-28T07:26:30.379Z,42.60
2019-02-28T07:28:59.227Z,42.30
2019-02-28T07:31:28.077Z,42.87
2019-02-28T07:33:57.008Z,42.83
2019-02-28T07:36:25.933Z,43.60
2019-02-28T07:38:54.839Z,42.73
2019-02-28T07:41:26.789Z,43.53
2019-02-28T07:43:54.346Z,42.53
2019-02-28T07:46:24.697Z,41.50
2019-02-28T07:48:53.702Z,42.47
2019-02-28T07:51:26.195Z,43.33
2019-02-28T07:53:53.147Z,42.13
2019-02-28T07:56:23.856Z,42.37
2019-02-28T07:58:52.662Z,43.30
2019-02-28T08:01:24.573Z,43.97
2019-02-28T08:03:52.089Z,43.60
2019-02-28T08:06:21.199Z,42.57
2019-02-28T08:08:50.071Z,42.57
2019-02-28T08:11:19.946Z,42.23
2019-02-28T08:13:49.617Z,42.47
2019-02-28T08:16:18.449Z,42.93
2019-02-28T08:18:51.033Z,43.40
2019-02-28T08:21:18.152Z,43.47
2019-02-28T08:23:47.071Z,42.63
2019-02-28T08:26:18.804Z,41.23
2019-02-28T08:28:46.587Z,41.07
2019-02-28T08:31:15.495Z,43.07
2019-02-28T08:33:48.005Z,41.13
2019-02-28T08:36:15.116Z,42.40
2019-02-28T08:38:44.241Z,41.17
2019-02-28T08:41:13.171Z,40.67
2019-02-28T08:43:44.678Z,41.70
2019-02-28T08:46:13.855Z,44.23
2019-02-28T08:48:42.921Z,41.67
2019-02-28T08:51:11.963Z,41.50
2019-02-28T08:53:40.803Z,40.70
2019-02-28T08:56:10.986Z,42.13
2019-02-28T08:58:40.255Z,41.87
2019-02-28T09:01:09.316Z,42.00
2019-02-28T09:03:38.337Z,43.07
2019-02-28T09:06:07.551Z,42.37
2019-02-28T09:08:36.620Z,42.20
2019-02-28T09:11:05.493Z,44.30
2019-02-28T09:13:34.431Z,42.30
2019-02-28T09:16:04.860Z,42.27
2019-02-28T09:18:34.162Z,43.73
2019-02-28T09:21:03.218Z,42.53
2019-02-28T09:23:34.480Z,44.33
2019-02-28T09:26:03.499Z,42.37
2019-02-28T09:28:32.463Z,42.53
2019-02-28T09:31:04.704Z,43.90
2019-02-28T09:33:31.974Z,41.17
2019-02-28T09:36:00.871Z,42.23
2019-02-28T09:38:29.834Z,41.10
2019-02-28T09:41:01.412Z,40.20
2019-02-28T09:43:29.515Z,41.13
2019-02-28T09:45:58.680Z,41.03
2019-02-28T09:48:27.739Z,40.87
2019-02-28T09:50:58.204Z,40.10
2019-02-28T09:53:27.485Z,38.63
2019-02-28T09:55:56.577Z,37.53
2019-02-28T09:58:26.228Z,39.37
2019-02-28T10:00:56.313Z,38.33
2019-02-28T10:03:25.286Z,39.63
2019-02-28T10:05:54.237Z,40.13
2019-02-28T10:08:23.171Z,38.33
2019-02-28T10:10:52.463Z,38.13
2019-02-28T10:13:22.763Z,37.70
2019-02-28T10:15:51.629Z,38.97
2019-02-28T10:18:20.679Z,38.83
2019-02-28T10:20:49.716Z,37.93
2019-02-28T10:23:21.412Z,38.27
2019-02-28T10:25:49.403Z,37.90
2019-02-28T10:28:18.511Z,38.13
2019-02-28T10:30:50.169Z,38.83
2019-02-28T10:33:18.404Z,37.00
2019-02-28T10:35:47.433Z,36.70
2019-02-28T10:38:16.415Z,36.83
2019-02-28T10:40:45.367Z,38.03
2019-02-28T10:43:15.474Z,38.77
2019-02-28T10:45:46.117Z,37.70
2019-02-28T10:48:15.138Z,36.83
2019-02-28T10:50:43.998Z,38.27
2019-02-28T10:53:12.841Z,37.70
2019-02-28T10:55:42.395Z,39.00
2019-02-28T10:58:12.548Z,38.37
2019-02-28T11:00:42.951Z,38.53
2019-02-28T11:03:12.158Z,37.23
2019-02-28T11:05:42.725Z,38.80
2019-02-28T11:08:14.775Z,38.17
2019-02-28T11:10:44.245Z,38.03
2019-02-28T11:13:14.773Z,36.37
2019-02-28T11:15:47.884Z,37.37
2019-02-28T11:18:14.924Z,36.33
2019-02-28T11:20:44.144Z,36.63
2019-02-28T11:23:14.827Z,37.30
2019-02-28T11:25:44.447Z,38.57
2019-02-28T11:28:14.182Z,37.37
2019-02-28T11:30:44.836Z,37.17
2019-02-28T11:33:14.682Z,36.60
2019-02-28T11:35:43.659Z,36.53
2019-02-28T11:38:12.835Z,37.13
2019-02-28T11:40:43.697Z,38.07
2019-02-28T11:43:12.683Z,37.60
2019-02-28T11:45:42.747Z,37.10
2019-02-28T11:48:12.853Z,37.63
2019-02-28T11:50:44.730Z,38.53
2019-02-28T11:53:12.712Z,39.93
2019-02-28T11:55:41.908Z,37.77
2019-02-28T11:58:16.247Z,37.73
2019-02-28T12:00:41.713Z,38.00
2019-02-28T12:03:10.731Z,38.43
2019-02-28T12:05:39.816Z,37.57
2019-02-28T12:08:10.485Z,37.53
2019-02-28T12:10:39.521Z,38.27
2019-02-28T12:13:08.547Z,38.17
2019-02-28T12:15:38.994Z,37.83
2019-02-28T12:18:08.288Z,37.97
2019-02-28T12:20:37.229Z,36.57
2019-02-28T12:23:06.310Z,37.10
2019-02-28T12:25:35.234Z,38.17
2019-02-28T12:28:06.570Z,38.10
2019-02-28T12:30:35.780Z,37.63
2019-02-28T12:33:04.886Z,39.93
2019-02-28T12:35:39.964Z,38.43
2019-02-28T12:38:05.183Z,39.30
2019-02-28T12:40:34.322Z,39.30
2019-02-28T12:43:05.403Z,41.23
2019-02-28T12:45:35.677Z,40.47
2019-02-28T12:48:04.849Z,37.73
2019-02-28T12:50:33.775Z,39.13
2019-02-28T12:53:02.724Z,39.43
2019-02-28T12:55:31.816Z,39.00
2019-02-28T12:58:00.930Z,38.80
2019-02-28T13:00:32.463Z,39.17
2019-02-28T13:03:01.455Z,39.60
2019-02-28T13:05:30.789Z,38.33
2019-02-28T13:07:59.787Z,38.40
2019-02-28T13:10:31.051Z,38.67
2019-02-28T13:13:06.273Z,37.97
2019-02-28T13:15:30.791Z,36.40
2019-02-28T13:17:59.919Z,36.23
2019-02-28T13:20:33.507Z,31.87
2019-02-28T13:23:01.179Z,31.23
2019-02-28T13:25:30.327Z,30.93
2019-02-28T13:27:59.351Z,31.90
2019-02-28T13:30:28.746Z,30.87
2019-02-28T13:32:57.815Z,32.13
2019-02-28T13:35:28.410Z,31.27
2019-02-28T13:37:57.468Z,29.97
2019-02-28T13:40:26.559Z,31.50
2019-02-28T13:42:55.616Z,30.40
2019-02-28T13:45:25.473Z,31.03
2019-02-28T13:47:54.422Z,30.63
2019-02-28T13:50:25.917Z,30.00
2019-02-28T13:52:55.723Z,31.53
2019-02-28T13:55:25.062Z,31.33
2019-02-28T13:57:54.167Z,31.43
2019-02-28T14:00:25.364Z,31.13
2019-02-28T14:02:56.092Z,31.10
2019-02-28T14:05:25.119Z,32.40
2019-02-28T14:07:54.036Z,32.30
2019-02-28T14:10:23.994Z,31.83
2019-02-28T14:12:57.187Z,33.63
2019-02-28T14:15:29.891Z,31.50
2019-02-28T14:17:58.934Z,32.70
2019-02-28T14:20:28.472Z,33.07
2019-02-28T14:22:57.532Z,34.07
2019-02-28T14:25:26.949Z,33.67
2019-02-28T14:27:56.817Z,33.87
2019-02-28T14:30:26.690Z,33.23
2019-02-28T14:32:55.836Z,33.83
2019-02-28T14:35:25.086Z,32.33
2019-02-28T14:37:55.642Z,33.67
2019-02-28T14:40:24.757Z,34.27
2019-02-28T14:42:53.863Z,33.97
2019-02-28T14:45:23.181Z,34.87
2019-02-28T14:47:56.870Z,33.67
2019-02-28T14:50:23.326Z,34.63
2019-02-28T14:52:53.308Z,35.77
2019-02-28T14:55:22.325Z,35.60
2019-02-28T14:57:51.200Z,36.47
2019-02-28T15:00:22.408Z,34.87
2019-02-28T15:02:51.540Z,34.57
2019-02-28T15:05:21.616Z,35.17
2019-02-28T15:07:50.750Z,35.73
2019-02-28T15:10:19.996Z,36.60
2019-02-28T15:12:49.142Z,35.20
2019-02-28T15:15:19.007Z,36.00
2019-02-28T15:17:48.105Z,34.70
2019-02-28T15:20:17.135Z,34.90
2019-02-28T15:22:46.081Z,36.07
2019-02-28T15:25:18.672Z,36.03
2019-02-28T15:27:46.693Z,36.37
2019-02-28T15:30:17.811Z,37.17
2019-02-28T15:32:46.658Z,36.77
2019-02-28T15:35:16.790Z,36.70
2019-02-28T15:37:45.932Z,36.83
2019-02-28T15:40:21.454Z,37.53
2019-02-28T15:42:50.824Z,36.37
2019-02-28T15:45:19.887Z,38.03
2019-02-28T15:47:48.754Z,37.10
2019-02-28T15:50:17.664Z,36.87
2019-02-28T15:52:46.695Z,36.57
2019-02-28T15:55:15.823Z,37.37
2019-02-28T15:57:44.774Z,36.23
2019-02-28T16:00:22.264Z,37.80
2019-02-28T16:02:52.092Z,36.90
2019-02-28T16:05:21.198Z,36.93
2019-02-28T16:07:50.597Z,38.27
2019-02-28T16:10:21.340Z,38.20
2019-02-28T16:12:51.189Z,38.33
2019-02-28T16:15:20.315Z,36.63
2019-02-28T16:17:49.320Z,37.30
2019-02-28T16:20:18.347Z,39.77
2019-02-28T16:22:52.061Z,37.63
2019-02-28T16:25:20.440Z,38.30
2019-02-28T16:27:49.458Z,37.73
2019-02-28T16:30:18.620Z,39.03
2019-02-28T16:32:49.210Z,38.87
2019-02-28T16:35:18.473Z,37.70
2019-02-28T16:37:47.392Z,39.07
2019-02-28T16:40:20.750Z,38.57
2019-02-28T16:42:47.946Z,38.23
2019-02-28T16:45:26.408Z,38.57
2019-02-28T16:47:58.933Z,38.60
2019-02-28T16:50:26.335Z,38.57
2019-02-28T16:52:55.378Z,38.83
2019-02-28T16:55:24.386Z,39.83
2019-02-28T16:57:53.608Z,39.67
2019-02-28T17:00:22.769Z,40.47
2019-02-28T17:02:51.831Z,39.47
2019-02-28T17:05:26.701Z,39.73
2019-02-28T17:07:51.544Z,39.93
2019-02-28T17:10:22.830Z,39.47
2019-02-28T17:13:09.499Z,39.23
2019-02-28T17:16:02.388Z,39.70
2019-02-28T17:18:32.340Z,40.37
2019-02-28T17:21:01.378Z,39.27
2019-02-28T17:23:30.342Z,39.87
2019-02-28T17:25:59.307Z,39.30
2019-02-28T17:28:56.557Z,39.70
2019-02-28T17:31:39.725Z,40.17
2019-02-28T17:34:08.582Z,41.17
2019-02-28T17:36:37.571Z,40.90
2019-02-28T17:39:07.616Z,40.93
2019-02-28T17:41:37.183Z,41.30
2019-02-28T17:44:57.746Z,40.77
2019-02-28T17:48:31.775Z,39.17
2019-02-28T17:51:15.015Z,39.70
2019-02-28T17:54:04.329Z,40.20
2019-02-28T17:57:09.247Z,38.50
2019-02-28T18:00:03.539Z,39.23
2019-02-28T18:02:48.663Z,39.37
2019-02-28T18:05:58.337Z,40.43
2019-02-28T18:08:37.766Z,39.23
2019-02-28T18:11:38.618Z,40.63
2019-02-28T18:14:20.043Z,40.33
2019-02-28T18:17:32.378Z,40.47
2019-02-28T18:20:32.320Z,41.33
2019-02-28T18:23:39.908Z,40.97
2019-02-28T18:26:39.284Z,41.50
2019-02-28T18:29:21.438Z,41.13
2019-02-28T18:31:50.336Z,42.67
2019-02-28T18:34:22.296Z,39.97
2019-02-28T18:36:51.213Z,43.63
2019-02-28T18:39:20.169Z,42.83
2019-02-28T18:41:50.750Z,42.73
2019-02-28T18:44:19.733Z,42.57
2019-02-28T18:46:49.036Z,41.80
2019-02-28T18:49:17.995Z,43.63
2019-02-28T18:51:47.007Z,43.67
2019-02-28T18:54:15.864Z,45.43
2019-02-28T18:56:44.779Z,47.67
2019-02-28T18:59:13.703Z,46.87
2019-02-28T19:01:42.535Z,46.33
2019-02-28T19:04:11.412Z,48.70
2019-02-28T19:06:40.255Z,52.93
2019-02-28T19:09:20.501Z,58.00
2019-02-28T19:11:49.660Z,60.00
2019-02-28T19:14:18.639Z,66.33
2019-02-28T19:16:47.596Z,69.00
2019-02-28T19:19:16.587Z,71.17
2019-02-28T19:21:45.579Z,67.63
2019-02-28T19:24:14.514Z,65.97
2019-02-28T19:26:43.431Z,62.97
2019-02-28T19:29:12.306Z,56.17
2019-02-28T19:31:41.331Z,49.77
2019-02-28T19:34:10.185Z,45.77
2019-02-28T19:36:39.061Z,40.60
2019-02-28T19:39:08.323Z,39.90
2019-02-28T19:41:37.236Z,39.40
2019-02-28T19:44:06.272Z,37.53
2019-02-28T19:46:35.225Z,37.87
2019-02-28T19:49:04.152Z,37.93
2019-02-28T19:51:33.141Z,37.77
2019-02-28T19:54:02.091Z,36.77
2019-02-28T19:56:31.023Z,38.03
2019-02-28T19:58:59.955Z,38.57
2019-02-28T20:01:29.848Z,40.33
2019-02-28T20:03:58.750Z,39.60
2019-02-28T20:06:27.669Z,37.90
2019-02-28T20:08:56.680Z,37.27
2019-02-28T20:11:25.619Z,37.43
2019-02-28T20:13:54.473Z,35.53
2019-02-28T20:16:23.416Z,36.07
2019-02-28T20:18:52.449Z,34.67
2019-02-28T20:21:21.406Z,35.50
2019-02-28T20:23:50.514Z,35.13
2019-02-28T20:26:19.454Z,35.20
2019-02-28T20:28:48.399Z,34.57
2019-02-28T20:31:25.411Z,35.13
2019-02-28T20:33:54.416Z,36.23
2019-02-28T20:36:23.521Z,35.10
2019-02-28T20:38:52.407Z,35.43
2019-02-28T20:41:21.323Z,35.77
2019-02-28T20:43:50.210Z,35.43
2019-02-28T20:46:19.071Z,36.07
2019-02-28T20:48:48.032Z,36.83
2019-02-28T20:51:16.936Z,36.37
2019-02-28T20:53:45.811Z,37.00
2019-02-28T20:56:14.782Z,36.37
2019-02-28T20:58:43.744Z,37.47
2019-02-28T21:01:12.819Z,36.73
2019-02-28T21:03:41.957Z,34.90
2019-02-28T21:06:10.882Z,36.63
2019-02-28T21:08:39.762Z,35.50
2019-02-28T21:11:08.719Z,35.80
2019-02-28T21:13:37.671Z,37.60
2019-02-28T21:16:06.748Z,38.27
2019-02-28T21:18:35.626Z,35.97
2019-02-28T21:21:04.605Z,37.57
2019-02-28T21:23:33.466Z,37.30
2019-02-28T21:26:02.430Z,38.50
2019-02-28T21:28:31.275Z,38.57
2019-02-28T21:31:00.195Z,36.93
2019-02-28T21:33:29.059Z,39.10
2019-02-28T21:35:58.065Z,37.50
2019-02-28T21:38:27.174Z,39.33
2019-02-28T21:40:56.141Z,41.83
2019-02-28T21:43:25.158Z,42.00
2019-02-28T21:45:54.006Z,41.93
2019-02-28T21:48:22.916Z,42.37
2019-02-28T21:50:51.807Z,44.93
2019-02-28T21:53:20.763Z,43.60
2019-02-28T21:55:49.671Z,43.13
2019-02-28T21:58:18.486Z,43.33
2019-02-28T22:00:47.559Z,43.10
2019-02-28T22:03:16.418Z,42.27
2019-02-28T22:05:45.450Z,43.10
2019-02-28T22:08:14.373Z,41.17
2019-02-28T22:10:43.257Z,42.83
2019-02-28T22:13:12.177Z,43.87
2019-02-28T22:15:41.051Z,44.07
2019-02-28T22:18:10.100Z,44.20
2019-02-28T22:20:42.049Z,44.23
2019-02-28T22:23:13.930Z,44.73
2019-02-28T22:25:44.705Z,45.13
2019-02-28T22:28:15.915Z,48.80
2019-02-28T22:31:02.675Z,50.33
2019-02-28T22:33:39.733Z,51.57
2019-02-28T22:36:17.638Z,52.57
2019-02-28T22:38:48.489Z,55.13
2019-02-28T22:41:19.417Z,54.67
2019-02-28T22:43:50.643Z,55.77
2019-02-28T22:46:22.393Z,55.53
2019-02-28T22:48:53.151Z,54.73
2019-02-28T22:51:24.450Z,52.90
2019-02-28T22:53:55.693Z,53.80
2019-02-28T22:56:27.838Z,53.10
2019-02-28T22:58:58.698Z,51.23
2019-02-28T23:01:31.127Z,48.20
2019-02-28T23:04:01.715Z,48.97
2019-02-28T23:06:35.060Z,47.77
2019-02-28T23:09:09.278Z,46.17
2019-02-28T23:11:41.983Z,44.60
2019-02-28T23:14:12.692Z,45.87
2019-02-28T23:16:45.584Z,43.73
2019-02-28T23:19:17.819Z,42.50
2019-02-28T23:21:50.787Z,42.33
2019-02-28T23:24:20.833Z,41.63
2019-02-28T23:27:19.539Z,42.53
2019-02-28T23:30:12.507Z,41.43
2019-02-28T23:32:56.423Z,41.33
2019-02-28T23:35:34.239Z,43.10
2019-02-28T23:38:08.477Z,44.13
2019-02-28T23:40:39.412Z,45.17
2019-02-28T23:43:13.724Z,44.57
2019-02-28T23:45:45.778Z,41.90
2019-02-28T23:48:17.192Z,42.03
2019-02-28T23:50:50.561Z,44.10
2019-02-28T23:53:22.025Z,42.97
2019-02-28T23:55:55.812Z,41.43
2019-02-28T23:58:26.934Z,43.47
